createdAt,value
2018-08-24T00:02:14.016Z,99527.70
2018-08-24T00:05:17.133Z,99520.11
2018-08-24T00:08:20.219Z,99413.27
2018-08-24T00:11:23.271Z,99515.19
2018-08-24T00:14:27.294Z,99514.70
2018-08-24T00:17:31.048Z,99505.53
2018-08-24T00:20:34.135Z,99501.78
2018-08-24T00:23:37.317Z,99512.66
2018-08-24T00:26:40.441Z,99498.75
2018-08-24T00:29:43.552Z,99498.52
2018-08-24T00:32:46.634Z,99490.56
2018-08-24T00:35:49.730Z,99499.63
2018-08-24T00:38:52.938Z,99500.73
2018-08-24T00:41:56.021Z,99484.05
2018-08-24T00:44:59.122Z,99490.58
2018-08-24T00:48:02.207Z,99491.15
2018-08-24T00:51:05.397Z,99493.43
2018-08-24T00:54:08.503Z,99494.19
2018-08-24T00:57:11.593Z,99500.00
2018-08-24T01:00:14.710Z,99505.52
2018-08-24T01:03:17.790Z,99510.31
2018-08-24T01:06:23.318Z,99523.92
2018-08-24T01:09:26.398Z,99537.59
2018-08-24T01:12:29.593Z,99568.55
2018-08-24T01:15:46.878Z,99557.91
2018-08-24T01:18:50.056Z,99554.02
2018-08-24T01:21:53.308Z,99553.03
2018-08-24T01:24:56.337Z,99549.00
2018-08-24T01:27:59.482Z,99550.57
2018-08-24T01:31:04.325Z,99548.15
2018-08-24T01:34:07.427Z,99536.08
2018-08-24T01:37:10.635Z,99537.59
2018-08-24T01:40:13.862Z,99526.00
2018-08-24T01:43:16.969Z,99530.30
2018-08-24T01:46:20.070Z,99529.52
2018-08-24T01:49:23.288Z,99529.05
2018-08-24T01:52:26.401Z,99526.20
2018-08-24T01:55:29.531Z,99521.13
2018-08-24T01:58:32.700Z,99524.70
2018-08-24T02:01:35.805Z,99528.25
2018-08-24T02:04:38.999Z,99525.45
2018-08-24T02:07:42.138Z,99516.84
2018-08-24T02:10:45.244Z,99518.16
2018-08-24T02:13:53.978Z,99520.75
2018-08-24T02:16:57.205Z,99515.22
2018-08-24T02:20:06.095Z,99520.83
2018-08-24T02:23:13.144Z,99520.73
2018-08-24T02:26:16.286Z,99515.97
2018-08-24T02:29:19.390Z,99513.05
2018-08-24T02:32:22.514Z,99518.43
2018-08-24T02:35:25.630Z,99519.55
2018-08-24T02:38:28.720Z,99522.61
2018-08-24T02:41:31.869Z,99435.86
2018-08-24T02:44:34.997Z,99538.31
2018-08-24T02:47:38.136Z,99539.66
2018-08-24T02:50:41.237Z,99534.89
2018-08-24T02:53:44.354Z,99518.95
2018-08-24T02:56:47.486Z,99533.84
2018-08-24T02:59:50.632Z,99511.95
2018-08-24T03:02:58.922Z,99519.61
2018-08-24T03:06:02.278Z,99514.47
2018-08-24T03:09:13.785Z,99507.67
2018-08-24T03:12:16.939Z,99514.02
2018-08-24T03:15:20.031Z,99511.44
2018-08-24T03:18:23.182Z,99520.51
2018-08-24T03:21:26.294Z,99513.44
2018-08-24T03:24:29.375Z,99516.77
2018-08-24T03:27:32.517Z,99516.36
2018-08-24T03:30:35.619Z,99517.95
2018-08-24T03:33:38.657Z,99521.71
2018-08-24T03:36:41.823Z,99521.90
2018-08-24T03:39:44.919Z,99523.49
2018-08-24T03:42:48.074Z,99530.06
2018-08-24T03:45:51.268Z,99530.74
2018-08-24T03:48:54.290Z,99533.08
2018-08-24T03:51:57.408Z,99529.58
2018-08-24T03:55:00.541Z,99523.73
2018-08-24T03:58:05.305Z,99532.39
2018-08-24T04:01:08.395Z,99531.28
2018-08-24T04:04:11.484Z,99533.23
2018-08-24T04:07:14.641Z,99528.34
2018-08-24T04:10:17.869Z,99535.82
2018-08-24T04:13:20.971Z,99534.12
2018-08-24T04:16:24.122Z,99535.59
2018-08-24T04:19:28.150Z,99546.83
2018-08-24T04:22:31.831Z,99539.77
2018-08-24T04:25:34.995Z,99539.67
2018-08-24T04:28:38.014Z,99538.98
2018-08-24T04:31:41.080Z,99536.02
2018-08-24T04:34:44.268Z,99536.59
2018-08-24T04:37:47.382Z,99537.56
2018-08-24T04:40:50.445Z,99541.39
2018-08-24T04:43:53.662Z,99535.16
2018-08-24T04:46:56.722Z,99542.80
2018-08-24T04:49:59.810Z,99544.23
2018-08-24T04:53:02.924Z,99544.13
2018-08-24T04:56:06.601Z,99543.00
2018-08-24T04:59:09.714Z,99546.17
2018-08-24T05:02:12.842Z,99555.31
2018-08-24T05:05:15.936Z,99555.18
2018-08-24T05:08:19.049Z,99552.63
2018-08-24T05:11:22.144Z,99558.78
2018-08-24T05:14:25.286Z,99564.63
2018-08-24T05:17:28.493Z,99566.83
2018-08-24T05:20:31.577Z,99568.03
2018-08-24T05:23:34.684Z,99566.91
2018-08-24T05:26:37.774Z,99575.81
2018-08-24T05:29:40.889Z,99576.58
2018-08-24T05:32:43.919Z,99584.67
2018-08-24T05:35:46.990Z,99581.13
2018-08-24T05:38:50.106Z,99584.09
2018-08-24T05:41:53.172Z,99578.12
2018-08-24T05:44:56.317Z,99584.38
2018-08-24T05:47:59.350Z,99583.91
2018-08-24T05:51:02.387Z,99582.99
2018-08-24T05:54:05.517Z,99572.70
2018-08-24T05:57:08.582Z,99567.41
2018-08-24T06:00:11.816Z,99573.13
2018-08-24T06:03:14.894Z,99583.34
2018-08-24T06:06:18.013Z,99575.43
2018-08-24T06:09:21.125Z,99578.08
2018-08-24T06:12:24.163Z,99592.63
2018-08-24T06:15:27.779Z,99580.12
2018-08-24T06:18:30.850Z,99588.92
2018-08-24T06:21:34.110Z,99592.66
2018-08-24T06:24:37.298Z,99592.08
2018-08-24T06:27:40.512Z,99588.89
2018-08-24T06:30:43.536Z,99594.23
2018-08-24T06:33:46.532Z,99602.82
2018-08-24T06:36:49.463Z,99598.27
2018-08-24T06:39:52.463Z,99597.67
2018-08-24T06:42:55.516Z,99597.72
2018-08-24T06:45:58.733Z,99602.20
2018-08-24T06:49:01.810Z,99602.36
2018-08-24T06:52:05.014Z,99607.13
2018-08-24T06:55:08.203Z,99603.62
2018-08-24T06:58:11.154Z,99609.83
2018-08-24T07:01:14.263Z,99605.27
2018-08-24T07:04:17.252Z,99606.25
2018-08-24T07:07:20.406Z,99608.33
2018-08-24T07:10:23.560Z,99605.65
2018-08-24T07:13:26.539Z,99612.69
2018-08-24T07:16:30.558Z,99603.47
2018-08-24T07:19:33.605Z,99601.14
2018-08-24T07:22:36.746Z,99598.38
2018-08-24T07:25:39.898Z,99622.56
2018-08-24T07:28:42.802Z,99621.22
2018-08-24T07:31:45.764Z,99632.32
2018-08-24T07:34:48.786Z,99624.21
2018-08-24T07:37:51.753Z,99629.44
2018-08-24T07:40:54.764Z,99635.52
2018-08-24T07:43:58.529Z,99645.82
2018-08-24T07:47:01.678Z,99632.89
2018-08-24T07:50:05.208Z,99642.87
2018-08-24T07:53:08.566Z,99647.44
2018-08-24T07:56:11.581Z,99646.81
2018-08-24T07:59:14.567Z,99659.84
2018-08-24T08:03:21.129Z,99662.50
2018-08-24T08:06:24.195Z,99670.26
2018-08-24T08:09:27.243Z,99662.27
2018-08-24T08:12:30.376Z,99673.03
2018-08-24T08:15:33.390Z,99663.61
2018-08-24T08:18:36.839Z,99664.32
2018-08-24T08:21:39.889Z,99661.52
2018-08-24T08:24:42.984Z,99661.01
2018-08-24T08:27:52.862Z,99671.80
2018-08-24T08:30:56.125Z,99676.72
2018-08-24T08:33:59.154Z,99687.62
2018-08-24T08:37:02.542Z,99678.14
2018-08-24T08:40:05.616Z,99688.11
2018-08-24T08:43:08.618Z,99682.80
2018-08-24T08:46:11.643Z,99700.26
2018-08-24T08:49:14.632Z,99694.67
2018-08-24T08:52:17.759Z,99713.73
2018-08-24T08:55:20.812Z,99717.17
2018-08-24T08:58:23.996Z,99735.09
2018-08-24T09:01:26.999Z,99734.53
2018-08-24T09:04:30.079Z,99731.47
2018-08-24T09:07:33.140Z,99727.56
2018-08-24T09:10:36.181Z,99731.11
2018-08-24T09:13:39.194Z,99733.48
2018-08-24T09:16:42.348Z,99737.80
2018-08-24T09:19:50.995Z,99743.16
2018-08-24T09:22:59.787Z,99742.20
2018-08-24T09:26:08.579Z,99743.31
2018-08-24T09:29:28.738Z,99751.66
2018-08-24T09:32:31.880Z,99755.16
2018-08-24T09:35:34.796Z,99763.78
2018-08-24T09:38:37.842Z,99761.32
2018-08-24T09:41:40.897Z,99755.17
2018-08-24T09:44:43.935Z,99759.75
2018-08-24T09:47:52.506Z,99760.20
2018-08-24T09:51:01.283Z,99757.46
2018-08-24T09:54:05.682Z,99764.75
2018-08-24T09:57:08.748Z,99753.48
2018-08-24T10:00:11.898Z,99720.89
2018-08-24T10:03:20.603Z,99757.75
2018-08-24T10:06:29.367Z,99758.09
2018-08-24T10:09:32.490Z,99744.31
2018-08-24T10:12:36.771Z,99752.17
2018-08-24T10:15:39.779Z,99746.23
2018-08-24T10:18:43.898Z,99740.95
2018-08-24T10:21:46.935Z,99744.64
2018-08-24T10:24:50.021Z,99750.04
2018-08-24T10:27:53.199Z,99740.70
2018-08-24T10:30:56.356Z,99746.12
2018-08-24T10:33:59.425Z,99742.84
2018-08-24T10:37:02.511Z,99745.00
2018-08-24T10:40:05.752Z,99736.95
2018-08-24T10:43:08.805Z,99738.19
2018-08-24T10:46:11.777Z,99738.09
2018-08-24T10:49:14.897Z,99735.73
2018-08-24T10:52:17.949Z,99741.27
2018-08-24T10:55:20.995Z,99744.09
2018-08-24T10:58:24.018Z,99744.72
2018-08-24T11:01:33.782Z,99738.08
2018-08-24T11:04:36.823Z,99736.27
2018-08-24T11:07:39.871Z,99751.32
2018-08-24T11:10:42.989Z,99728.59
2018-08-24T11:13:59.310Z,99727.97
2018-08-24T11:17:03.005Z,99722.37
2018-08-24T11:20:07.965Z,99729.66
2018-08-24T11:23:11.196Z,99734.58
2018-08-24T11:26:14.347Z,99738.72
2018-08-24T11:29:17.500Z,99726.05
2018-08-24T11:32:20.646Z,99726.61
2018-08-24T11:35:24.821Z,99719.49
2018-08-24T11:38:29.037Z,99733.41
2018-08-24T11:41:34.043Z,99734.05
2018-08-24T11:44:37.335Z,99728.91
2018-08-24T11:47:40.445Z,99740.39
2018-08-24T11:50:43.521Z,99730.59
2018-08-24T11:54:04.249Z,99731.14
2018-08-24T12:00:12.199Z,99727.53
2018-08-24T12:03:22.980Z,99724.31
2018-08-24T12:06:26.086Z,99734.11
2018-08-24T12:09:29.230Z,99741.25
2018-08-24T12:12:32.372Z,99739.88
2018-08-24T12:15:36.004Z,99731.81
2018-08-24T12:18:39.661Z,99728.67
2018-08-24T12:22:02.445Z,99725.48
2018-08-24T12:26:00.683Z,99729.16
2018-08-24T12:29:04.570Z,99732.22
2018-08-24T12:32:28.459Z,99737.39
2018-08-24T12:35:32.009Z,99735.95
2018-08-24T12:38:35.171Z,99730.62
2018-08-24T12:41:38.378Z,99731.98
2018-08-24T12:44:41.847Z,99721.30
2018-08-24T12:47:44.869Z,99721.80
2018-08-24T12:50:47.926Z,99731.33
2018-08-24T12:53:50.976Z,99640.68
2018-08-24T12:56:54.059Z,99727.54
2018-08-24T13:00:04.199Z,99731.08
2018-08-24T13:03:07.162Z,99717.39
2018-08-24T13:06:10.506Z,99717.14
2018-08-24T13:09:13.711Z,99713.83
2018-08-24T13:12:16.951Z,99714.46
2018-08-24T13:15:20.022Z,99713.01
2018-08-24T13:18:23.047Z,99710.52
2018-08-24T13:21:26.096Z,99705.95
2018-08-24T13:24:29.159Z,99714.52
2018-08-24T13:27:32.186Z,99716.50
2018-08-24T13:30:35.263Z,99713.58
2018-08-24T13:33:38.315Z,99714.06
2018-08-24T13:36:41.448Z,99708.88
2018-08-24T13:39:44.461Z,99714.46
2018-08-24T13:42:47.567Z,99709.22
2018-08-24T13:45:50.548Z,99700.34
2018-08-24T13:48:53.527Z,99707.64
2018-08-24T13:51:56.597Z,99690.25
2018-08-24T13:54:59.684Z,99689.13
2018-08-24T13:58:02.819Z,99695.27
2018-08-24T14:01:06.114Z,99687.02
2018-08-24T14:04:09.310Z,99691.58
2018-08-24T14:07:12.399Z,99697.45
2018-08-24T14:10:15.502Z,99698.28
2018-08-24T14:13:18.626Z,99694.23
2018-08-24T14:16:21.628Z,99694.31
2018-08-24T14:19:24.734Z,99687.78
2018-08-24T14:22:27.840Z,99687.55
2018-08-24T14:25:31.009Z,99683.70
2018-08-24T14:28:34.052Z,99674.00
2018-08-24T14:31:37.350Z,99675.31
2018-08-24T14:34:40.683Z,99679.73
2018-08-24T14:37:43.801Z,99676.80
2018-08-24T14:40:46.896Z,99675.35
2018-08-24T14:43:49.987Z,99680.05
2018-08-24T14:46:53.071Z,99681.52
2018-08-24T14:49:56.216Z,99676.56
2018-08-24T14:52:59.319Z,99671.23
2018-08-24T14:56:02.401Z,99668.94
2018-08-24T14:59:05.751Z,99680.28
2018-08-24T15:02:08.821Z,99673.70
2018-08-24T15:05:12.294Z,99674.83
2018-08-24T15:08:15.385Z,99665.86
2018-08-24T15:11:18.451Z,99678.69
2018-08-24T15:14:21.506Z,99678.23
2018-08-24T15:17:24.844Z,99664.67
2018-08-24T15:20:27.900Z,99674.69
2018-08-24T15:23:30.942Z,99656.39
2018-08-24T15:26:34.034Z,99670.48
2018-08-24T15:29:37.152Z,99661.02
2018-08-24T15:32:40.210Z,99652.25
2018-08-24T15:35:43.297Z,99655.08
2018-08-24T15:38:46.386Z,99660.19
2018-08-24T15:41:49.513Z,99672.31
2018-08-24T15:44:52.620Z,99669.55
2018-08-24T15:47:55.644Z,99662.93
2018-08-24T15:50:58.710Z,99660.82
2018-08-24T15:54:01.802Z,99664.33
2018-08-24T15:57:04.947Z,99665.14
2018-08-24T16:00:08.095Z,99672.49
2018-08-24T16:03:11.122Z,99667.16
2018-08-24T16:06:14.162Z,99639.73
2018-08-24T16:09:17.135Z,99670.72
2018-08-24T16:12:20.315Z,99680.06
2018-08-24T16:15:23.303Z,99673.35
2018-08-24T16:18:26.335Z,99671.63
2018-08-24T16:21:29.365Z,99683.30
2018-08-24T16:24:32.728Z,99677.43
2018-08-24T16:27:35.852Z,99681.44
2018-08-24T16:30:38.922Z,99678.88
2018-08-24T16:33:41.961Z,99676.91
2018-08-24T16:36:45.057Z,99666.27
2018-08-24T16:39:48.054Z,99672.23
2018-08-24T16:42:51.227Z,99671.09
2018-08-24T16:45:54.228Z,99679.33
2018-08-24T16:48:57.243Z,99667.96
2018-08-24T16:52:00.394Z,99672.81
2018-08-24T16:55:03.437Z,99680.13
2018-08-24T16:58:06.640Z,99684.20
2018-08-24T17:02:12.813Z,99687.27
2018-08-24T17:05:15.916Z,99677.88
2018-08-24T17:08:19.009Z,99683.50
2018-08-24T17:11:22.129Z,99685.97
2018-08-24T17:14:25.294Z,99686.63
2018-08-24T17:17:28.460Z,99680.66
2018-08-24T17:20:31.569Z,99675.79
2018-08-24T17:23:36.849Z,99673.77
2018-08-24T17:26:40.039Z,99670.10
2018-08-24T17:29:43.186Z,99670.23
2018-08-24T17:32:46.242Z,99671.13
2018-08-24T17:35:49.300Z,99671.41
2018-08-24T17:38:52.309Z,99669.97
2018-08-24T17:41:55.623Z,99665.34
2018-08-24T17:44:58.522Z,99665.36
2018-08-24T17:48:01.674Z,99672.22
2018-08-24T17:51:04.733Z,99669.03
2018-08-24T17:54:07.810Z,99664.34
2018-08-24T17:57:10.822Z,99672.66
2018-08-24T18:00:16.427Z,99669.66
2018-08-24T18:03:19.723Z,99632.83
2018-08-24T18:06:23.952Z,99666.94
2018-08-24T18:09:27.131Z,99666.28
2018-08-24T18:12:30.189Z,99665.46
2018-08-24T18:15:33.246Z,99663.55
2018-08-24T18:18:36.473Z,99663.34
2018-08-24T18:21:39.518Z,99659.64
2018-08-24T18:24:42.604Z,99667.22
2018-08-24T18:27:45.647Z,99670.22
2018-08-24T18:30:48.667Z,99671.00
2018-08-24T18:33:51.710Z,99670.28
2018-08-24T18:36:54.771Z,99671.73
2018-08-24T18:39:57.859Z,99664.66
2018-08-24T18:43:00.902Z,99670.67
2018-08-24T18:46:05.123Z,99668.83
2018-08-24T18:49:08.148Z,99665.11
2018-08-24T18:52:11.261Z,99677.06
2018-08-24T18:55:14.339Z,99585.62
2018-08-24T18:58:17.494Z,99684.95
2018-08-24T19:01:20.585Z,99677.97
2018-08-24T19:04:23.579Z,99684.40
2018-08-24T19:07:26.592Z,99686.13
2018-08-24T19:10:34.198Z,99685.67
2018-08-24T19:13:37.498Z,99687.19
2018-08-24T19:16:40.623Z,99688.92
2018-08-24T19:19:49.237Z,99690.64
2018-08-24T19:22:52.283Z,99694.11
2018-08-24T19:25:55.398Z,99690.64
2018-08-24T19:29:04.185Z,99693.56
2018-08-24T19:32:07.624Z,99700.16
2018-08-24T19:35:10.741Z,99690.11
2018-08-24T19:38:13.883Z,99705.13
2018-08-24T19:41:22.625Z,99697.50
2018-08-24T19:44:25.901Z,99696.61
2018-08-24T19:47:34.753Z,99692.67
2018-08-24T19:50:38.270Z,99695.56
2018-08-24T19:53:41.597Z,99691.26
2018-08-24T19:56:45.151Z,99689.89
2018-08-24T19:59:48.526Z,99688.19
2018-08-24T20:02:51.696Z,99680.72
2018-08-24T20:06:00.561Z,99681.01
2018-08-24T20:10:15.266Z,99678.23
2018-08-24T20:13:18.416Z,99687.98
2018-08-24T20:16:27.460Z,99678.02
2018-08-24T20:19:30.905Z,99672.05
2018-08-24T20:22:36.873Z,99675.31
2018-08-24T20:25:40.414Z,99674.53
2018-08-24T20:28:44.013Z,99670.80
2018-08-24T20:31:48.982Z,99660.57
2018-08-24T20:34:52.099Z,99659.23
2018-08-24T20:37:55.248Z,99659.41
2018-08-24T20:40:58.387Z,99653.00
2018-08-24T20:44:01.551Z,99640.27
2018-08-24T20:47:04.808Z,99639.50
2018-08-24T20:50:08.090Z,99636.92
2018-08-24T20:53:13.032Z,99646.00
2018-08-24T20:56:16.164Z,99645.05
2018-08-24T20:59:19.241Z,99640.23
2018-08-24T21:02:22.354Z,99640.69
2018-08-24T21:05:25.554Z,99646.82
2018-08-24T21:08:28.803Z,99647.43
2018-08-24T21:11:31.939Z,99639.28
2018-08-24T21:14:35.071Z,99637.56
2018-08-24T21:17:38.265Z,99637.92
2018-08-24T21:20:41.418Z,99633.35
2018-08-24T21:23:44.643Z,99632.27
2018-08-24T21:26:48.373Z,99634.72
2018-08-24T21:29:51.429Z,99629.12
2018-08-24T21:33:01.453Z,99630.59
2018-08-24T21:36:05.529Z,99618.63
2018-08-24T21:39:10.904Z,99616.67
2018-08-24T21:42:13.999Z,99612.49
2018-08-24T21:45:17.749Z,99615.03
2018-08-24T21:48:21.380Z,99614.83
2018-08-24T21:51:24.422Z,99615.69
2018-08-24T21:54:27.506Z,99612.27
2018-08-24T21:57:31.064Z,99616.12
2018-08-24T22:00:38.871Z,99612.19
2018-08-24T22:03:41.955Z,99614.35
2018-08-24T22:06:45.128Z,99608.72
2018-08-24T22:09:48.450Z,99608.80
2018-08-24T22:12:51.590Z,99611.40
2018-08-24T22:15:54.723Z,99609.98
2018-08-24T22:18:57.798Z,99608.02
2018-08-24T22:22:01.375Z,99602.70
2018-08-24T22:25:04.622Z,99613.53
2018-08-24T22:28:07.744Z,99615.49
2018-08-24T22:31:10.880Z,99611.95
2018-08-24T22:34:14.013Z,99613.75
2018-08-24T22:37:17.128Z,99610.29
2018-08-24T22:40:20.254Z,99613.08
2018-08-24T22:43:29.056Z,99612.85
2018-08-24T22:46:32.142Z,99607.02
2018-08-24T22:49:35.270Z,99610.92
2018-08-24T22:52:39.037Z,99609.98
2018-08-24T22:55:42.166Z,99604.55
2018-08-24T22:58:45.346Z,99601.98
2018-08-24T23:01:48.449Z,99598.91
2018-08-24T23:04:51.607Z,99591.30
2018-08-24T23:07:54.723Z,99590.33
2018-08-24T23:10:57.900Z,99589.23
2018-08-24T23:14:01.025Z,99583.91
2018-08-24T23:17:04.380Z,99577.19
2018-08-24T23:20:07.528Z,99579.84
2018-08-24T23:23:10.644Z,99577.89
2018-08-24T23:26:13.769Z,99568.45
2018-08-24T23:29:16.902Z,99568.00
2018-08-24T23:32:20.102Z,99559.31
2018-08-24T23:35:23.496Z,99564.66
2018-08-24T23:38:26.533Z,99465.95
2018-08-24T23:41:29.670Z,99553.83
2018-08-24T23:44:32.814Z,99554.02
2018-08-24T23:47:35.896Z,99547.90
2018-08-24T23:50:39.043Z,99546.19
2018-08-24T23:53:42.121Z,99538.55
2018-08-24T23:56:45.234Z,99543.02
2018-08-24T23:59:48.339Z,99533.52
